sensor_id;sensor_type;location;lat;lon;timestamp;temperature;humidity
60234;DHT22;49514;43.538;-5.708;2023-05-29T00:00:45;21.70;99.90
60234;DHT22;49514;43.538;-5.708;2023-05-29T00:03:12;21.70;99.90
60234;DHT22;49514;43.538;-5.708;2023-05-29T00:05:39;21.60;99.90
60234;DHT22;49514;43.538;-5.708;2023-05-29T00:08:06;21.60;99.90
60234;DHT22;49514;43.538;-5.708;2023-05-29T00:10:33;21.60;99.90
60234;DHT22;49514;43.538;-5.708;2023-05-29T00:12:59;21.50;99.90
60234;DHT22;49514;43.538;-5.708;2023-05-29T00:15:27;21.60;99.90
60234;DHT22;49514;43.538;-5.708;2023-05-29T00:17:54;21.50;99.90
60234;DHT22;49514;43.538;-5.708;2023-05-29T00:20:21;21.50;99.90
60234;DHT22;49514;43.538;-5.708;2023-05-29T00:22:48;21.50;99.90
60234;DHT22;49514;43.538;-5.708;2023-05-29T00:25:15;21.40;99.90
60234;DHT22;49514;43.538;-5.708;2023-05-29T00:27:42;21.40;99.90
60234;DHT22;49514;43.538;-5.708;2023-05-29T00:30:09;21.30;99.90
60234;DHT22;49514;43.538;-5.708;2023-05-29T00:32:36;21.30;99.90
60234;DHT22;49514;43.538;-5.708;2023-05-29T00:35:03;21.30;99.90
60234;DHT22;49514;43.538;-5.708;2023-05-29T00:37:30;21.30;99.90
60234;DHT22;49514;43.538;-5.708;2023-05-29T00:39:57;21.30;99.90
60234;DHT22;49514;43.538;-5.708;2023-05-29T00:42:24;21.30;99.90
60234;DHT22;49514;43.538;-5.708;2023-05-29T00:44:50;21.30;99.90
60234;DHT22;49514;43.538;-5.708;2023-05-29T00:47:18;21.30;99.90
60234;DHT22;49514;43.538;-5.708;2023-05-29T00:49:45;21.30;99.90
60234;DHT22;49514;43.538;-5.708;2023-05-29T00:52:12;21.30;99.90
60234;DHT22;49514;43.538;-5.708;2023-05-29T00:54:42;21.30;99.90
60234;DHT22;49514;43.538;-5.708;2023-05-29T00:57:10;21.30;99.90
60234;DHT22;49514;43.538;-5.708;2023-05-29T00:59:39;21.20;99.90
60234;DHT22;49514;43.538;-5.708;2023-05-29T01:02:06;21.10;99.90
60234;DHT22;49514;43.538;-5.708;2023-05-29T01:04:34;21.10;99.90
60234;DHT22;49514;43.538;-5.708;2023-05-29T01:07:01;21.10;99.90
60234;DHT22;49514;43.538;-5.708;2023-05-29T01:09:31;21.00;99.90
60234;DHT22;49514;43.538;-5.708;2023-05-29T01:12:00;21.00;99.90
60234;DHT22;49514;43.538;-5.708;2023-05-29T01:17:26;20.90;99.90
60234;DHT22;49514;43.538;-5.708;2023-05-29T01:20:24;20.90;99.90
60234;DHT22;49514;43.538;-5.708;2023-05-29T01:28:37;20.90;99.90
60234;DHT22;49514;43.538;-5.708;2023-05-29T01:31:09;20.80;99.90
60234;DHT22;49514;43.538;-5.708;2023-05-29T01:33:40;20.80;99.90
60234;DHT22;49514;43.538;-5.708;2023-05-29T01:36:10;20.80;99.90
60234;DHT22;49514;43.538;-5.708;2023-05-29T01:38:37;20.80;99.90
60234;DHT22;49514;43.538;-5.708;2023-05-29T01:41:04;20.80;99.90
60234;DHT22;49514;43.538;-5.708;2023-05-29T01:43:31;20.70;99.90
60234;DHT22;49514;43.538;-5.708;2023-05-29T01:45:57;20.70;99.90
60234;DHT22;49514;43.538;-5.708;2023-05-29T01:48:26;20.60;99.90
60234;DHT22;49514;43.538;-5.708;2023-05-29T01:50:58;20.60;99.90
60234;DHT22;49514;43.538;-5.708;2023-05-29T01:53:24;20.60;99.90
60234;DHT22;49514;43.538;-5.708;2023-05-29T01:55:51;20.60;99.90
60234;DHT22;49514;43.538;-5.708;2023-05-29T01:58:20;20.60;99.90
60234;DHT22;49514;43.538;-5.708;2023-05-29T02:00:48;20.60;99.90
60234;DHT22;49514;43.538;-5.708;2023-05-29T02:03:15;20.50;99.90
60234;DHT22;49514;43.538;-5.708;2023-05-29T02:05:41;20.40;99.90
60234;DHT22;49514;43.538;-5.708;2023-05-29T02:08:08;20.40;99.90
60234;DHT22;49514;43.538;-5.708;2023-05-29T02:10:34;20.30;99.90
60234;DHT22;49514;43.538;-5.708;2023-05-29T02:13:01;20.30;99.90
60234;DHT22;49514;43.538;-5.708;2023-05-29T02:15:28;20.30;99.90
60234;DHT22;49514;43.538;-5.708;2023-05-29T02:17:55;20.30;99.90
60234;DHT22;49514;43.538;-5.708;2023-05-29T02:20:22;20.30;99.90
60234;DHT22;49514;43.538;-5.708;2023-05-29T02:22:48;20.40;99.90
60234;DHT22;49514;43.538;-5.708;2023-05-29T02:25:15;20.40;99.90
60234;DHT22;49514;43.538;-5.708;2023-05-29T02:27:42;20.40;99.90
60234;DHT22;49514;43.538;-5.708;2023-05-29T02:30:08;20.40;99.90
60234;DHT22;49514;43.538;-5.708;2023-05-29T02:32:35;20.30;99.90
60234;DHT22;49514;43.538;-5.708;2023-05-29T02:35:04;20.30;99.90
60234;DHT22;49514;43.538;-5.708;2023-05-29T02:37:31;20.30;99.90
60234;DHT22;49514;43.538;-5.708;2023-05-29T02:39:58;20.30;99.90
60234;DHT22;49514;43.538;-5.708;2023-05-29T02:42:25;20.30;99.90
60234;DHT22;49514;43.538;-5.708;2023-05-29T02:44:51;20.30;99.90
60234;DHT22;49514;43.538;-5.708;2023-05-29T02:47:18;20.20;99.90
60234;DHT22;49514;43.538;-5.708;2023-05-29T02:49:44;20.20;99.90
60234;DHT22;49514;43.538;-5.708;2023-05-29T02:52:11;20.20;99.90
60234;DHT22;49514;43.538;-5.708;2023-05-29T02:54:38;20.20;99.90
60234;DHT22;49514;43.538;-5.708;2023-05-29T02:57:04;20.10;99.90
60234;DHT22;49514;43.538;-5.708;2023-05-29T02:59:31;20.10;99.90
60234;DHT22;49514;43.538;-5.708;2023-05-29T03:01:58;20.10;99.90
60234;DHT22;49514;43.538;-5.708;2023-05-29T03:04:25;20.10;99.90
60234;DHT22;49514;43.538;-5.708;2023-05-29T03:06:52;20.00;99.90
60234;DHT22;49514;43.538;-5.708;2023-05-29T03:09:20;20.00;99.90
60234;DHT22;49514;43.538;-5.708;2023-05-29T03:11:46;19.90;99.90
60234;DHT22;49514;43.538;-5.708;2023-05-29T03:14:17;19.80;99.90
60234;DHT22;49514;43.538;-5.708;2023-05-29T03:16:45;19.80;99.90
60234;DHT22;49514;43.538;-5.708;2023-05-29T03:19:12;19.70;99.90
60234;DHT22;49514;43.538;-5.708;2023-05-29T03:21:39;19.70;99.90
60234;DHT22;49514;43.538;-5.708;2023-05-29T03:24:06;19.70;99.90
60234;DHT22;49514;43.538;-5.708;2023-05-29T03:26:34;19.60;99.90
60234;DHT22;49514;43.538;-5.708;2023-05-29T03:29:03;19.60;99.90
60234;DHT22;49514;43.538;-5.708;2023-05-29T03:31:31;19.60;99.90
60234;DHT22;49514;43.538;-5.708;2023-05-29T03:33:59;19.50;99.90
60234;DHT22;49514;43.538;-5.708;2023-05-29T03:36:35;19.40;99.90
60234;DHT22;49514;43.538;-5.708;2023-05-29T03:39:05;19.40;99.90
60234;DHT22;49514;43.538;-5.708;2023-05-29T03:41:32;19.30;99.90
60234;DHT22;49514;43.538;-5.708;2023-05-29T03:43:59;19.20;99.90
60234;DHT22;49514;43.538;-5.708;2023-05-29T03:46:27;19.10;99.90
60234;DHT22;49514;43.538;-5.708;2023-05-29T03:48:54;19.10;99.90
60234;DHT22;49514;43.538;-5.708;2023-05-29T03:51:21;19.10;99.90
60234;DHT22;49514;43.538;-5.708;2023-05-29T03:53:49;19.00;99.90
60234;DHT22;49514;43.538;-5.708;2023-05-29T03:56:16;19.00;99.90
60234;DHT22;49514;43.538;-5.708;2023-05-29T03:58:42;18.90;99.90
60234;DHT22;49514;43.538;-5.708;2023-05-29T04:01:10;18.80;99.90
60234;DHT22;49514;43.538;-5.708;2023-05-29T04:03:37;18.80;99.90
60234;DHT22;49514;43.538;-5.708;2023-05-29T04:06:04;18.80;99.90
60234;DHT22;49514;43.538;-5.708;2023-05-29T04:08:31;18.80;99.90
60234;DHT22;49514;43.538;-5.708;2023-05-29T04:10:58;18.80;99.90
60234;DHT22;49514;43.538;-5.708;2023-05-29T04:13:24;18.70;99.90
60234;DHT22;49514;43.538;-5.708;2023-05-29T04:15:51;18.70;99.90
60234;DHT22;49514;43.538;-5.708;2023-05-29T04:18:20;18.70;99.90
60234;DHT22;49514;43.538;-5.708;2023-05-29T04:20:46;18.60;99.90
60234;DHT22;49514;43.538;-5.708;2023-05-29T04:23:13;18.60;99.90
60234;DHT22;49514;43.538;-5.708;2023-05-29T04:25:40;18.60;99.90
60234;DHT22;49514;43.538;-5.708;2023-05-29T04:28:07;18.50;99.90
60234;DHT22;49514;43.538;-5.708;2023-05-29T04:30:33;18.50;99.90
60234;DHT22;49514;43.538;-5.708;2023-05-29T04:33:02;18.50;99.90
60234;DHT22;49514;43.538;-5.708;2023-05-29T04:35:29;18.40;99.90
60234;DHT22;49514;43.538;-5.708;2023-05-29T04:37:58;18.40;99.90
60234;DHT22;49514;43.538;-5.708;2023-05-29T04:40:29;18.40;99.90
60234;DHT22;49514;43.538;-5.708;2023-05-29T04:42:55;18.40;99.90
60234;DHT22;49514;43.538;-5.708;2023-05-29T04:45:23;18.40;99.90
60234;DHT22;49514;43.538;-5.708;2023-05-29T04:47:51;18.40;99.90
60234;DHT22;49514;43.538;-5.708;2023-05-29T04:50:19;18.40;99.90
60234;DHT22;49514;43.538;-5.708;2023-05-29T04:52:47;18.40;99.90
60234;DHT22;49514;43.538;-5.708;2023-05-29T04:55:14;18.30;99.90
60234;DHT22;49514;43.538;-5.708;2023-05-29T04:57:42;18.30;99.90
60234;DHT22;49514;43.538;-5.708;2023-05-29T05:00:10;18.30;99.90
60234;DHT22;49514;43.538;-5.708;2023-05-29T05:02:42;18.30;99.90
60234;DHT22;49514;43.538;-5.708;2023-05-29T05:05:10;18.30;99.90
60234;DHT22;49514;43.538;-5.708;2023-05-29T05:07:38;18.30;99.90
60234;DHT22;49514;43.538;-5.708;2023-05-29T05:10:05;18.30;99.90
60234;DHT22;49514;43.538;-5.708;2023-05-29T05:12:33;18.30;99.90
60234;DHT22;49514;43.538;-5.708;2023-05-29T05:15:02;18.40;99.90
60234;DHT22;49514;43.538;-5.708;2023-05-29T05:17:30;18.50;99.90
60234;DHT22;49514;43.538;-5.708;2023-05-29T05:19:56;18.40;99.90
60234;DHT22;49514;43.538;-5.708;2023-05-29T05:22:23;18.40;99.90
60234;DHT22;49514;43.538;-5.708;2023-05-29T05:24:51;18.40;99.90
60234;DHT22;49514;43.538;-5.708;2023-05-29T05:27:19;18.40;99.90
60234;DHT22;49514;43.538;-5.708;2023-05-29T05:29:47;18.50;99.90
60234;DHT22;49514;43.538;-5.708;2023-05-29T05:32:14;18.50;99.90
60234;DHT22;49514;43.538;-5.708;2023-05-29T05:34:41;18.40;99.90
60234;DHT22;49514;43.538;-5.708;2023-05-29T05:37:08;18.50;99.90
60234;DHT22;49514;43.538;-5.708;2023-05-29T05:39:35;18.40;99.90
60234;DHT22;49514;43.538;-5.708;2023-05-29T05:42:02;18.50;99.90
60234;DHT22;49514;43.538;-5.708;2023-05-29T05:44:49;18.50;99.90
60234;DHT22;49514;43.538;-5.708;2023-05-29T05:47:16;18.50;99.90
60234;DHT22;49514;43.538;-5.708;2023-05-29T05:49:43;18.50;99.90
60234;DHT22;49514;43.538;-5.708;2023-05-29T05:52:10;18.40;99.90
60234;DHT22;49514;43.538;-5.708;2023-05-29T05:54:36;18.40;99.90
60234;DHT22;49514;43.538;-5.708;2023-05-29T05:57:03;18.40;99.90
60234;DHT22;49514;43.538;-5.708;2023-05-29T05:59:31;18.40;99.90
60234;DHT22;49514;43.538;-5.708;2023-05-29T06:01:57;18.40;99.90
60234;DHT22;49514;43.538;-5.708;2023-05-29T06:04:24;18.40;99.90
60234;DHT22;49514;43.538;-5.708;2023-05-29T06:06:51;18.40;99.90
60234;DHT22;49514;43.538;-5.708;2023-05-29T06:09:18;18.40;99.90
60234;DHT22;49514;43.538;-5.708;2023-05-29T06:11:45;18.40;99.90
60234;DHT22;49514;43.538;-5.708;2023-05-29T06:14:12;18.50;99.90
60234;DHT22;49514;43.538;-5.708;2023-05-29T06:16:38;18.50;99.90
60234;DHT22;49514;43.538;-5.708;2023-05-29T06:19:05;18.50;99.90
60234;DHT22;49514;43.538;-5.708;2023-05-29T06:21:41;18.60;99.90
60234;DHT22;49514;43.538;-5.708;2023-05-29T06:24:08;18.60;99.90
60234;DHT22;49514;43.538;-5.708;2023-05-29T06:26:36;18.60;99.90
60234;DHT22;49514;43.538;-5.708;2023-05-29T06:29:06;18.60;99.90
60234;DHT22;49514;43.538;-5.708;2023-05-29T06:31:33;18.60;99.90
60234;DHT22;49514;43.538;-5.708;2023-05-29T06:34:00;18.70;99.90
60234;DHT22;49514;43.538;-5.708;2023-05-29T06:36:27;18.70;99.90
60234;DHT22;49514;43.538;-5.708;2023-05-29T06:38:54;18.70;99.90
60234;DHT22;49514;43.538;-5.708;2023-05-29T06:41:21;18.80;99.90
60234;DHT22;49514;43.538;-5.708;2023-05-29T06:43:49;18.90;99.90
60234;DHT22;49514;43.538;-5.708;2023-05-29T06:46:18;19.00;99.90
60234;DHT22;49514;43.538;-5.708;2023-05-29T06:48:44;19.00;99.90
60234;DHT22;49514;43.538;-5.708;2023-05-29T06:51:12;19.10;99.90
60234;DHT22;49514;43.538;-5.708;2023-05-29T06:53:42;19.10;99.90
60234;DHT22;49514;43.538;-5.708;2023-05-29T06:56:11;19.20;99.90
60234;DHT22;49514;43.538;-5.708;2023-05-29T06:58:38;19.10;99.90
60234;DHT22;49514;43.538;-5.708;2023-05-29T07:01:06;19.20;99.90
60234;DHT22;49514;43.538;-5.708;2023-05-29T07:03:33;19.20;99.90
60234;DHT22;49514;43.538;-5.708;2023-05-29T07:06:03;19.20;99.90
60234;DHT22;49514;43.538;-5.708;2023-05-29T07:08:29;19.30;99.90
60234;DHT22;49514;43.538;-5.708;2023-05-29T07:10:56;19.20;99.90
60234;DHT22;49514;43.538;-5.708;2023-05-29T07:13:25;19.30;99.90
60234;DHT22;49514;43.538;-5.708;2023-05-29T07:15:53;19.30;99.90
60234;DHT22;49514;43.538;-5.708;2023-05-29T07:18:25;19.30;99.90
60234;DHT22;49514;43.538;-5.708;2023-05-29T08:08:14;20.40;99.90
60234;DHT22;49514;43.538;-5.708;2023-05-29T08:10:41;20.40;99.90
60234;DHT22;49514;43.538;-5.708;2023-05-29T08:13:08;20.40;99.90
60234;DHT22;49514;43.538;-5.708;2023-05-29T08:15:37;20.40;99.90
60234;DHT22;49514;43.538;-5.708;2023-05-29T08:18:06;20.40;99.90
60234;DHT22;49514;43.538;-5.708;2023-05-29T08:20:33;20.50;99.90
60234;DHT22;49514;43.538;-5.708;2023-05-29T08:23:01;20.50;99.90
60234;DHT22;49514;43.538;-5.708;2023-05-29T08:25:28;20.60;99.90
60234;DHT22;49514;43.538;-5.708;2023-05-29T08:27:54;20.60;99.90
60234;DHT22;49514;43.538;-5.708;2023-05-29T08:30:21;20.70;99.90
60234;DHT22;49514;43.538;-5.708;2023-05-29T08:32:48;20.70;99.90
60234;DHT22;49514;43.538;-5.708;2023-05-29T08:35:16;20.80;99.90
60234;DHT22;49514;43.538;-5.708;2023-05-29T08:37:43;20.80;99.90
60234;DHT22;49514;43.538;-5.708;2023-05-29T08:40:10;20.80;99.90
60234;DHT22;49514;43.538;-5.708;2023-05-29T08:42:54;20.90;99.90
60234;DHT22;49514;43.538;-5.708;2023-05-29T08:45:22;21.00;99.90
60234;DHT22;49514;43.538;-5.708;2023-05-29T08:47:54;21.00;99.90
60234;DHT22;49514;43.538;-5.708;2023-05-29T08:50:22;21.10;99.90
60234;DHT22;49514;43.538;-5.708;2023-05-29T08:52:49;21.20;99.90
60234;DHT22;49514;43.538;-5.708;2023-05-29T08:55:17;21.30;99.90
60234;DHT22;49514;43.538;-5.708;2023-05-29T08:57:43;21.30;99.90
60234;DHT22;49514;43.538;-5.708;2023-05-29T09:00:15;21.40;99.90
60234;DHT22;49514;43.538;-5.708;2023-05-29T09:02:46;21.50;99.90
60234;DHT22;49514;43.538;-5.708;2023-05-29T09:05:13;21.60;99.90
60234;DHT22;49514;43.538;-5.708;2023-05-29T09:07:39;21.70;99.90
60234;DHT22;49514;43.538;-5.708;2023-05-29T09:10:08;21.80;99.90
60234;DHT22;49514;43.538;-5.708;2023-05-29T09:12:35;21.80;99.90
60234;DHT22;49514;43.538;-5.708;2023-05-29T09:15:03;21.90;99.90
60234;DHT22;49514;43.538;-5.708;2023-05-29T09:17:34;22.00;99.90
60234;DHT22;49514;43.538;-5.708;2023-05-29T09:20:01;22.10;99.90
60234;DHT22;49514;43.538;-5.708;2023-05-29T09:22:31;22.10;99.90
60234;DHT22;49514;43.538;-5.708;2023-05-29T09:24:58;22.20;99.90
60234;DHT22;49514;43.538;-5.708;2023-05-29T09:27:25;22.20;99.90
60234;DHT22;49514;43.538;-5.708;2023-05-29T09:29:52;22.30;99.90
60234;DHT22;49514;43.538;-5.708;2023-05-29T09:32:19;22.30;99.90
60234;DHT22;49514;43.538;-5.708;2023-05-29T09:34:46;22.30;99.90
60234;DHT22;49514;43.538;-5.708;2023-05-29T09:37:13;22.30;99.90
60234;DHT22;49514;43.538;-5.708;2023-05-29T09:39:50;22.40;99.90
60234;DHT22;49514;43.538;-5.708;2023-05-29T09:42:18;22.50;99.90
60234;DHT22;49514;43.538;-5.708;2023-05-29T09:44:49;22.50;99.90
60234;DHT22;49514;43.538;-5.708;2023-05-29T09:47:21;22.50;99.90
60234;DHT22;49514;43.538;-5.708;2023-05-29T09:49:48;22.50;99.90
60234;DHT22;49514;43.538;-5.708;2023-05-29T09:52:21;22.50;99.90
60234;DHT22;49514;43.538;-5.708;2023-05-29T09:54:48;22.50;99.90
60234;DHT22;49514;43.538;-5.708;2023-05-29T09:57:17;22.50;99.90
60234;DHT22;49514;43.538;-5.708;2023-05-29T09:59:44;22.60;99.90
60234;DHT22;49514;43.538;-5.708;2023-05-29T10:02:14;22.50;99.90
60234;DHT22;49514;43.538;-5.708;2023-05-29T10:04:42;22.60;99.90
60234;DHT22;49514;43.538;-5.708;2023-05-29T10:07:28;22.60;99.90
60234;DHT22;49514;43.538;-5.708;2023-05-29T10:10:05;22.80;99.90
60234;DHT22;49514;43.538;-5.708;2023-05-29T10:12:37;22.80;99.90
60234;DHT22;49514;43.538;-5.708;2023-05-29T10:15:15;22.90;99.90
60234;DHT22;49514;43.538;-5.708;2023-05-29T10:17:56;23.00;99.90
60234;DHT22;49514;43.538;-5.708;2023-05-29T10:20:24;23.10;99.90
60234;DHT22;49514;43.538;-5.708;2023-05-29T10:22:56;23.30;99.90
60234;DHT22;49514;43.538;-5.708;2023-05-29T10:25:25;23.70;99.90
60234;DHT22;49514;43.538;-5.708;2023-05-29T10:27:55;24.00;99.90
60234;DHT22;49514;43.538;-5.708;2023-05-29T10:30:39;24.30;99.90
60234;DHT22;49514;43.538;-5.708;2023-05-29T10:36:38;24.50;99.90
60234;DHT22;49514;43.538;-5.708;2023-05-29T10:39:06;24.50;99.90
60234;DHT22;49514;43.538;-5.708;2023-05-29T10:41:34;24.70;99.90
60234;DHT22;49514;43.538;-5.708;2023-05-29T10:47:05;25.00;99.90
60234;DHT22;49514;43.538;-5.708;2023-05-29T10:49:32;25.20;99.90
60234;DHT22;49514;43.538;-5.708;2023-05-29T10:51:59;25.50;99.90
60234;DHT22;49514;43.538;-5.708;2023-05-29T10:54:40;25.70;99.90
60234;DHT22;49514;43.538;-5.708;2023-05-29T10:57:15;26.00;99.90
60234;DHT22;49514;43.538;-5.708;2023-05-29T10:59:45;26.30;99.90
60234;DHT22;49514;43.538;-5.708;2023-05-29T11:02:15;26.20;99.90
60234;DHT22;49514;43.538;-5.708;2023-05-29T11:04:43;26.00;99.90
60234;DHT22;49514;43.538;-5.708;2023-05-29T11:07:38;25.80;99.90
60234;DHT22;49514;43.538;-5.708;2023-05-29T11:10:17;25.50;99.90
60234;DHT22;49514;43.538;-5.708;2023-05-29T11:12:56;25.20;99.90
60234;DHT22;49514;43.538;-5.708;2023-05-29T11:15:24;25.00;99.90
60234;DHT22;49514;43.538;-5.708;2023-05-29T11:17:50;24.80;99.90
60234;DHT22;49514;43.538;-5.708;2023-05-29T11:20:20;24.70;99.90
60234;DHT22;49514;43.538;-5.708;2023-05-29T11:25:22;24.50;99.90
60234;DHT22;49514;43.538;-5.708;2023-05-29T11:27:48;24.40;99.90
60234;DHT22;49514;43.538;-5.708;2023-05-29T11:30:15;24.40;99.90
60234;DHT22;49514;43.538;-5.708;2023-05-29T11:32:41;24.50;99.90
60234;DHT22;49514;43.538;-5.708;2023-05-29T11:35:11;24.50;99.90
60234;DHT22;49514;43.538;-5.708;2023-05-29T11:37:39;24.60;99.90
60234;DHT22;49514;43.538;-5.708;2023-05-29T11:40:06;24.80;99.90
60234;DHT22;49514;43.538;-5.708;2023-05-29T11:42:33;25.00;99.90
60234;DHT22;49514;43.538;-5.708;2023-05-29T11:45:15;25.30;99.90
60234;DHT22;49514;43.538;-5.708;2023-05-29T11:50:23;26.20;99.90
60234;DHT22;49514;43.538;-5.708;2023-05-29T11:52:50;26.60;99.90
60234;DHT22;49514;43.538;-5.708;2023-05-29T11:55:18;27.00;99.90
60234;DHT22;49514;43.538;-5.708;2023-05-29T11:57:50;27.10;99.90
60234;DHT22;49514;43.538;-5.708;2023-05-29T12:00:18;27.40;99.90
60234;DHT22;49514;43.538;-5.708;2023-05-29T12:02:46;27.60;99.90
60234;DHT22;49514;43.538;-5.708;2023-05-29T12:05:14;27.60;99.90
60234;DHT22;49514;43.538;-5.708;2023-05-29T12:07:51;27.70;99.90
60234;DHT22;49514;43.538;-5.708;2023-05-29T12:10:20;27.70;99.90
60234;DHT22;49514;43.538;-5.708;2023-05-29T12:12:50;28.00;99.90
60234;DHT22;49514;43.538;-5.708;2023-05-29T12:15:17;28.20;99.90
60234;DHT22;49514;43.538;-5.708;2023-05-29T12:17:46;28.30;99.90
60234;DHT22;49514;43.538;-5.708;2023-05-29T12:20:14;28.50;99.90
60234;DHT22;49514;43.538;-5.708;2023-05-29T12:22:42;28.30;99.90
60234;DHT22;49514;43.538;-5.708;2023-05-29T12:25:19;28.20;99.90
60234;DHT22;49514;43.538;-5.708;2023-05-29T12:27:47;28.30;99.90
60234;DHT22;49514;43.538;-5.708;2023-05-29T12:32:52;28.20;99.90
60234;DHT22;49514;43.538;-5.708;2023-05-29T12:37:48;27.80;99.90
60234;DHT22;49514;43.538;-5.708;2023-05-29T12:40:19;27.80;99.90
60234;DHT22;49514;43.538;-5.708;2023-05-29T12:42:53;27.60;99.90
60234;DHT22;49514;43.538;-5.708;2023-05-29T12:45:19;27.40;99.90
60234;DHT22;49514;43.538;-5.708;2023-05-29T12:50:22;27.70;99.90
60234;DHT22;49514;43.538;-5.708;2023-05-29T12:55:24;28.70;99.90
60234;DHT22;49514;43.538;-5.708;2023-05-29T12:57:51;29.10;99.90
60234;DHT22;49514;43.538;-5.708;2023-05-29T13:00:18;29.30;99.90
60234;DHT22;49514;43.538;-5.708;2023-05-29T13:02:46;29.50;99.60
60234;DHT22;49514;43.538;-5.708;2023-05-29T13:05:13;29.50;98.80
60234;DHT22;49514;43.538;-5.708;2023-05-29T13:07:48;29.50;98.70
60234;DHT22;49514;43.538;-5.708;2023-05-29T13:10:15;29.40;99.30
60234;DHT22;49514;43.538;-5.708;2023-05-29T13:12:41;29.40;99.10
60234;DHT22;49514;43.538;-5.708;2023-05-29T13:15:09;29.10;98.60
60234;DHT22;49514;43.538;-5.708;2023-05-29T13:17:35;29.20;98.90
60234;DHT22;49514;43.538;-5.708;2023-05-29T13:20:02;29.30;98.60
60234;DHT22;49514;43.538;-5.708;2023-05-29T13:22:29;29.20;98.20
60234;DHT22;49514;43.538;-5.708;2023-05-29T13:24:57;29.30;98.40
60234;DHT22;49514;43.538;-5.708;2023-05-29T13:27:25;29.30;98.50
60234;DHT22;49514;43.538;-5.708;2023-05-29T13:29:52;29.70;98.30
60234;DHT22;49514;43.538;-5.708;2023-05-29T13:32:19;30.80;96.80
60234;DHT22;49514;43.538;-5.708;2023-05-29T13:34:46;32.30;97.30
60234;DHT22;49514;43.538;-5.708;2023-05-29T13:37:12;35.20;94.60
60234;DHT22;49514;43.538;-5.708;2023-05-29T13:39:39;36.00;88.40
60234;DHT22;49514;43.538;-5.708;2023-05-29T13:42:05;38.60;83.00
60234;DHT22;49514;43.538;-5.708;2023-05-29T13:44:32;40.10;73.60
60234;DHT22;49514;43.538;-5.708;2023-05-29T13:46:58;41.60;72.90
60234;DHT22;49514;43.538;-5.708;2023-05-29T13:49:25;43.40;67.60
60234;DHT22;49514;43.538;-5.708;2023-05-29T13:51:52;45.20;68.20
60234;DHT22;49514;43.538;-5.708;2023-05-29T13:54:18;46.40;64.10
60234;DHT22;49514;43.538;-5.708;2023-05-29T13:56:45;47.20;58.20
60234;DHT22;49514;43.538;-5.708;2023-05-29T13:59:12;46.70;58.20
60234;DHT22;49514;43.538;-5.708;2023-05-29T14:01:38;46.20;55.80
60234;DHT22;49514;43.538;-5.708;2023-05-29T14:04:05;46.30;53.70
60234;DHT22;49514;43.538;-5.708;2023-05-29T14:06:32;45.80;54.70
60234;DHT22;49514;43.538;-5.708;2023-05-29T14:08:59;46.20;53.50
60234;DHT22;49514;43.538;-5.708;2023-05-29T14:11:26;45.60;53.30
60234;DHT22;49514;43.538;-5.708;2023-05-29T14:13:53;46.00;53.30
60234;DHT22;49514;43.538;-5.708;2023-05-29T14:16:19;46.90;53.50
60234;DHT22;49514;43.538;-5.708;2023-05-29T14:18:46;47.30;53.30
60234;DHT22;49514;43.538;-5.708;2023-05-29T14:21:16;47.80;52.90
60234;DHT22;49514;43.538;-5.708;2023-05-29T14:23:42;47.70;52.20
60234;DHT22;49514;43.538;-5.708;2023-05-29T14:26:08;48.10;52.50
60234;DHT22;49514;43.538;-5.708;2023-05-29T14:28:35;49.00;53.20
60234;DHT22;49514;43.538;-5.708;2023-05-29T14:31:01;49.40;51.80
60234;DHT22;49514;43.538;-5.708;2023-05-29T14:33:28;50.20;50.20
60234;DHT22;49514;43.538;-5.708;2023-05-29T14:35:55;50.40;51.10
60234;DHT22;49514;43.538;-5.708;2023-05-29T14:38:21;51.10;51.90
60234;DHT22;49514;43.538;-5.708;2023-05-29T14:40:48;51.20;49.70
60234;DHT22;49514;43.538;-5.708;2023-05-29T14:43:14;51.80;50.90
60234;DHT22;49514;43.538;-5.708;2023-05-29T14:45:40;52.20;51.50
60234;DHT22;49514;43.538;-5.708;2023-05-29T14:48:07;51.80;49.10
60234;DHT22;49514;43.538;-5.708;2023-05-29T14:50:33;50.60;49.60
60234;DHT22;49514;43.538;-5.708;2023-05-29T14:52:59;49.30;48.50
60234;DHT22;49514;43.538;-5.708;2023-05-29T14:55:26;49.30;49.50
60234;DHT22;49514;43.538;-5.708;2023-05-29T14:57:53;49.80;52.40
60234;DHT22;49514;43.538;-5.708;2023-05-29T15:00:19;49.80;49.10
60234;DHT22;49514;43.538;-5.708;2023-05-29T15:02:46;50.20;48.00
60234;DHT22;49514;43.538;-5.708;2023-05-29T15:05:12;49.40;48.30
60234;DHT22;49514;43.538;-5.708;2023-05-29T15:07:39;49.80;48.10
60234;DHT22;49514;43.538;-5.708;2023-05-29T15:10:06;49.60;48.10
60234;DHT22;49514;43.538;-5.708;2023-05-29T15:12:32;49.60;48.90
60234;DHT22;49514;43.538;-5.708;2023-05-29T15:14:59;50.30;48.50
60234;DHT22;49514;43.538;-5.708;2023-05-29T15:17:25;50.80;48.00
60234;DHT22;49514;43.538;-5.708;2023-05-29T15:19:51;50.90;46.90
60234;DHT22;49514;43.538;-5.708;2023-05-29T15:22:18;51.20;47.20
60234;DHT22;49514;43.538;-5.708;2023-05-29T15:24:44;51.60;51.80
60234;DHT22;49514;43.538;-5.708;2023-05-29T15:27:10;51.70;47.50
60234;DHT22;49514;43.538;-5.708;2023-05-29T15:29:37;50.40;47.00
60234;DHT22;49514;43.538;-5.708;2023-05-29T15:32:03;49.80;47.00
60234;DHT22;49514;43.538;-5.708;2023-05-29T15:34:30;49.20;47.70
60234;DHT22;49514;43.538;-5.708;2023-05-29T15:36:57;47.50;48.20
60234;DHT22;49514;43.538;-5.708;2023-05-29T15:39:23;46.80;48.70
60234;DHT22;49514;43.538;-5.708;2023-05-29T15:41:52;46.20;48.90
60234;DHT22;49514;43.538;-5.708;2023-05-29T15:44:18;45.10;49.90
60234;DHT22;49514;43.538;-5.708;2023-05-29T15:46:45;45.00;49.80
60234;DHT22;49514;43.538;-5.708;2023-05-29T15:49:11;43.70;51.40
60234;DHT22;49514;43.538;-5.708;2023-05-29T15:51:38;44.40;53.20
60234;DHT22;49514;43.538;-5.708;2023-05-29T15:54:07;44.80;50.50
60234;DHT22;49514;43.538;-5.708;2023-05-29T15:56:33;44.40;50.20
60234;DHT22;49514;43.538;-5.708;2023-05-29T15:58:59;43.30;50.50
60234;DHT22;49514;43.538;-5.708;2023-05-29T16:01:26;43.00;51.20
60234;DHT22;49514;43.538;-5.708;2023-05-29T16:03:53;44.00;51.20
60234;DHT22;49514;43.538;-5.708;2023-05-29T16:06:19;45.20;51.20
60234;DHT22;49514;43.538;-5.708;2023-05-29T16:08:46;46.60;50.30
60234;DHT22;49514;43.538;-5.708;2023-05-29T16:11:13;47.00;49.40
60234;DHT22;49514;43.538;-5.708;2023-05-29T16:13:39;47.50;49.40
60234;DHT22;49514;43.538;-5.708;2023-05-29T16:16:07;48.10;48.80
60234;DHT22;49514;43.538;-5.708;2023-05-29T16:21:01;48.90;55.80
60234;DHT22;49514;43.538;-5.708;2023-05-29T16:23:27;49.30;56.10
60234;DHT22;49514;43.538;-5.708;2023-05-29T16:25:54;49.70;55.50
60234;DHT22;49514;43.538;-5.708;2023-05-29T16:28:20;49.60;56.00
60234;DHT22;49514;43.538;-5.708;2023-05-29T16:30:47;50.20;55.70
60234;DHT22;49514;43.538;-5.708;2023-05-29T16:33:13;50.00;58.30
60234;DHT22;49514;43.538;-5.708;2023-05-29T16:35:40;50.20;56.80
60234;DHT22;49514;43.538;-5.708;2023-05-29T16:38:06;49.90;56.30
60234;DHT22;49514;43.538;-5.708;2023-05-29T16:40:32;49.70;52.00